Nadunumu Airport

NDN · Northern Province, Papua Nuova Guinea

Storia di METAR NDN · Nadunumu Airport

Di seguito sono riportati i METAR degli ultimi giorni. Seleziona un anno per sfogliare i METAR più vecchi, dall'anno 2007 in poi.

3 dicembre 2022

Tempo Codice Tempo metereologico Temp. Vista Base nuvolosa Vento METAR/SPECI
12:00
I
26 °C 4 km 1.500 ft 310° 310° 15 - 20 kt SPECI AYPY 030200Z 31015G20KT 4000 SHRA BKN015 OVC030 26/24 Q1006
12:00
I
26 °C 4 km 1.500 ft 310° 310° 15 - 20 kt METAR AYPY 030200Z 31015G20KT 4000 SHRA BKN015 OVC030 26/24 Q1006=
11:00
V
31 °C 10 km+ 6.000 ft 290° 290° 10 - 15 kt METAR AYPY 030100Z 29010G15KT 9999 HZ SCT040 BKN060 31/24 Q1006 RMK
09:00
V
30 °C 10 km+ - 330° 330° 10 - 15 kt METAR AYPY 022300Z 33010G15KT 9999 HZ SCT040 SCT080 30/23 Q1007 RMK
08:00
V
29 °C 10 km+ - 330° 330° 10 kt METAR AYPY 022200Z 33010KT 9999 HZ FEW040 SCT070 29/23 Q1006
06:00
V
24 °C 10 km+ - 320° 320° 5 - 10 kt METAR AYPY 022000Z 32005G10KT 9999 SCT040 24/24 Q1005
05:00
V
24 °C 10 km+ - 330° 330° 5 kt METAR AYPY 021900Z 33005KT 9999 FEW050 24/24 Q1004
04:00
V
25 °C 10 km+ - 300° 300° 5 kt METAR AYPY 021800Z 30005KT 9999 FEW050 25/24 Q1003
02:00
V
25 °C 10 km+ - 360° 360° 5 kt METAR AYPY 021600Z 36005KT 9999 SCT050 25/24 Q1004
01:00
V
26 °C 10 km+ - 320° 320° 5 kt METAR AYPY 021500Z 32005KT 9999 SCT050 26/24 Q1005
00:00
V
26 °C 10 km+ - Var Var 3 kt METAR AYPY 021400Z VRB03KT 9999 SCT040 26/24 Q1006

2 dicembre 2022

Tempo Codice Tempo metereologico Temp. Vista Base nuvolosa Vento METAR/SPECI
22:00
V
27 °C 10 km+ - Var Var 3 kt METAR AYPY 021200Z VRB03KT 9999 FEW040 SCT100 27/24 Q1007
21:00
V
27 °C 10 km+ - Var Var 3 kt METAR AYPY 021100Z VRB03KT 9999 FEW030 SCT130 27/24 Q1006
20:00
V
28 °C 10 km+ - 330° 330° 5 kt METAR AYPY 021000Z 33005KT 9999 FEW040 28/23 Q1006
18:00
V
30 °C 10 km+ - 260° 260° 10 kt METAR AYPY 020800Z 26010KT 9999 FEW030 SCT070 30/23 Q1004
17:00
V
31 °C 10 km+ - 250° 250° 10 kt METAR AYPY 020700Z 25010KT 9999 HZ SCT050 31/23 Q1003
16:00
V
32 °C 10 km+ - 330° 330° 10 - 15 kt METAR AYPY 020600Z 33010G15KT 9999 HZ SCT050 32/23 Q1003
15:00
V
31 °C 10 km+ - 300° 300° 10 - 15 kt METAR AYPY 020500Z 30010G15KT 9999 HZ SCT035 SCT060 31/23 Q1003
14:00
V
31 °C 10 km+ - 280° 280° 10 - 20 kt METAR AYPY 020400Z 28010G20KT 9999 HZ FEW030 SCT050 31/24 Q1003 RMK
13:00
V
31 °C 10 km+ - 260° 260° 10 - 15 kt METAR AYPY 020300Z 26010G15KT 9999 HZ SCT050 31/23 Q1004=
12:00
V
32 °C 10 km+ - 290° 290° 10 kt METAR AYPY 020200Z 29010KT 9999 SCT050 32/22 Q1005
11:00
V
30 °C 10 km+ - 310° 310° 8 kt METAR AYPY 020100Z 31008KT 9999 SCT050 30/22 Q1005
10:00
V
29 °C 10 km+ - 350° 350° 8 kt METAR AYPY 020000Z 35008KT 9999 SCT050 29/25 Q1006
09:00
V
26 °C 10 km+ - 350° 350° 10 kt METAR AYPY 012300Z 35010KT 9999 SCT030 SCT050 26/23 Q1007
08:00
M
25 °C 10 km+ 2.500 ft 350° 350° 15 - 20 kt METAR AYPY 012200Z 35015G20KT 9999 SCT015 BKN025 OVC050 25/23 Q1007 RMK
07:00
U
24 °C 0 m 1.500 ft 330° 330° 15 - 20 kt METAR AYPY 012100Z 33015G20KT BKN015 OVC030 24/23 Q1007 RMK
06:00
V
24 °C 10 km+ 3.500 ft 320° 320° 10 kt METAR AYPY 012000Z 32010KT 9999 FEW020 BKN035 24/23 Q1006 RMK
05:00
V
24 °C 10 km+ - 310° 310° 5 kt METAR AYPY 011900Z 31005KT 9999 FEW050 24/23 Q1004
04:00
V
24 °C 10 km+ - 310° 310° 10 kt METAR AYPY 011800Z 31010KT 9999 FEW050 24/23 Q1004
03:00
V
24 °C 10 km+ - 330° 330° 5 kt METAR AYPY 011700Z 33005KT 9999 FEW050 24/23 Q1004
02:00
V
25 °C 10 km+ - 340° 340° 10 kt METAR AYPY 011600Z 34010KT 9999 FEW050 25/24 Q1004
00:00
V
26 °C 10 km+ - 310° 310° 5 kt METAR AYPY 011400Z 31005KT 9999 FEW040 26/24 Q1005

1 dicembre 2022

Tempo Codice Tempo metereologico Temp. Vista Base nuvolosa Vento METAR/SPECI
22:00
V
26 °C 10 km+ - Var Var 3 kt METAR AYPY 011200Z VRB03KT 9999 FEW050 26/24 Q1006
21:00
V
26 °C 10 km+ - Var Var 4 kt METAR AYPY 011100Z VRB04KT 9999 FEW030 SCT070 26/24 Q1006
20:00
V
27 °C 10 km+ - Var Var 4 kt METAR AYPY 011000Z VRB04KT 9999 SCT050 27/24 Q1006=
18:00
V
30 °C 10 km+ - 320° 320° 10 kt METAR AYPY 010800Z 32010KT 9999 SCT030 SCT050 30/23 Q1004 RMK/CB ASSW RASH TO E
17:00
V
30 °C 10 km+ - 290° 290° 10 kt METAR AYPY 010700Z 29010KT 9999 SCT030 SCT050 30/24 Q1003 RMK/CB ASSW RASH TO E
16:00
V
31 °C 10 km+ - 270° 270° 10 - 15 kt METAR AYPY 010600Z 27010G15KT 9999 SCT030 SCT050 31/25 Q1002 RMK
14:00
V
30 °C 10 km+ - 270° 270° 10 - 20 kt METAR AYPY 010400Z 27010G20KT 9999 SCT030 SCT050 30/25 Q1003 RMK
13:00
V
32 °C 10 km+ - 330° 330° 10 kt METAR AYPY 010300Z 33010KT 9999 SCT025 SCT040 32/24 Q1004 RMK/CB TO N AND E
12:00
V
31 °C 10 km+ - 310° 310° 10 kt METAR AYPY 010200Z 31010KT 9999 SCT025 SCT040 31/24 Q1005=
11:00
V
31 °C 10 km+ 4.000 ft 320° 320° 10 kt METAR AYPY 010100Z 32010KT 9999 SHRA SCT020 BKN040 31/23 Q1006
10:00
V
31 °C 10 km+ - 320° 320° 10 kt METAR AYPY 010000Z 32010KT 9999 HZ FEW020 SCT050 31/23 Q1006
09:00
V
29 °C 10 km+ - 320° 320° 6 kt METAR AYPY 302300Z 32006KT 9999 SCT080 29/24 Q1007
08:00
V
27 °C 10 km+ - 330° 330° 10 kt METAR AYPY 302200Z 33010KT 9999 FEW020 SCT080 27/24 Q1007
07:00
V
25 °C 10 km+ - Var Var 4 kt METAR AYPY 302100Z VRB04KT 9999 SCT050 25/24 Q1006
06:00
V
24 °C 10 km+ - Var Var 4 kt METAR AYPY 302000Z VRB04KT 9999 SCT050 24/24 Q1005
05:00
V
25 °C 10 km+ - 330° 330° 5 kt METAR AYPY 301900Z 33005KT 9999 SCT050 25/24 Q1004
04:00
V
25 °C 10 km+ - 310° 310° 5 kt METAR AYPY 301800Z 31005KT 9999 SCT050 25/23 Q1004
03:00
V
25 °C 10 km+ - 300° 300° 5 kt METAR AYPY 301700Z 30005KT 9999 FEW050 25/23 Q1004
02:00
V
25 °C 10 km+ - 330° 330° 5 kt METAR AYPY 301600Z 33005KT 9999 FEW045 25/24 Q1004
01:00
V
26 °C 10 km+ - 330° 330° 5 kt METAR AYPY 301500Z 33005KT 9999 SCT045 26/23 Q1005

30 novembre 2022

Tempo Codice Tempo metereologico Temp. Vista Base nuvolosa Vento METAR/SPECI
23:00
V
26 °C 10 km+ - Var Var 3 kt METAR AYPY 301300Z VRB03KT 9999 SCT050 26/24 Q1006=
22:00
V
27 °C 10 km+ - Var Var 3 kt METAR AYPY 301200Z VRB03KT 9999 SCT050 27/24 Q1006
21:00
V
28 °C 10 km+ - Var Var 3 kt METAR AYPY 301100Z VRB03KT 9999 SCT050 28/24 Q1006
20:00
V
28 °C 10 km+ - Var Var 3 kt METAR AYPY 301000Z VRB03KT 9999 SCT050 28/24 Q1006

Noi e le terze parti seguiamo il tuo comportamento su internet con i cookie. Se continui, riteniamo che tu sia d'accordo con la nostra Politica sui cookie.